Time;durP1;ratioP1;P1;durP2;ratioP2;P2;SDS_P1;SDS_P2;PMS_P1;PMS_P2;Temp;Humidity;BMP_temperature;BMP_pressure;BME280_temperature;BME280_humidity;BME280_pressure;Samples;Min_cycle;Max_cycle;Signal;HPM_P1;HPM_P2
2023/04/06 04:05:25;;;;;;;4.75;4.35;;;-0.20;99.90;;;;;;5441884;23;20261;-64
2023/04/06 04:07:51;;;;;;;6.03;4.22;;;-0.20;99.90;;;;;;4975483;28;20250;-64
2023/04/06 04:10:17;;;;;;;5.28;4.15;;;-0.20;99.90;;;;;;4975445;28;20578;-64
2023/04/06 04:12:43;;;;;;;4.37;3.97;;;-0.30;99.90;;;;;;4974272;28;20222;-64
2023/04/06 04:15:09;;;;;;;7.80;5.27;;;-0.30;99.90;;;;;;4973743;28;20447;-64
2023/04/06 04:17:34;;;;;;;4.27;3.17;;;-0.30;99.90;;;;;;4975415;28;20206;-64
2023/04/06 04:20:00;;;;;;;5.70;5.07;;;-0.30;99.90;;;;;;4975434;28;20175;-64
2023/04/06 04:22:27;;;;;;;6.27;5.33;;;-0.30;99.90;;;;;;4975448;28;20252;-63
2023/04/06 04:24:53;;;;;;;6.22;4.85;;;-0.30;99.90;;;;;;4974672;28;20188;-64
2023/04/06 04:27:18;;;;;;;5.07;4.57;;;-0.30;99.90;;;;;;4975278;28;20542;-64
2023/04/06 04:29:44;;;;;;;5.90;5.40;;;-0.40;99.90;;;;;;4975256;28;20173;-63
2023/04/06 04:32:10;;;;;;;9.13;4.83;;;-0.40;99.90;;;;;;4975273;28;20180;-63
2023/04/06 04:34:35;;;;;;;7.87;4.57;;;-0.30;99.90;;;;;;4973538;28;20207;-63
2023/04/06 04:37:01;;;;;;;9.60;4.30;;;-0.30;99.90;;;;;;4973939;28;20200;-63
2023/04/06 04:39:27;;;;;;;7.70;6.27;;;-0.30;99.90;;;;;;4975083;28;20472;-64
2023/04/06 04:41:53;;;;;;;7.43;6.27;;;-0.30;99.90;;;;;;4975229;28;20286;-64
2023/04/06 04:44:19;;;;;;;5.28;4.78;;;-0.30;99.90;;;;;;4974679;28;20233;-63
2023/04/06 04:46:45;;;;;;;5.75;5.22;;;-0.30;99.90;;;;;;4973234;28;20183;-63
2023/04/06 04:49:10;;;;;;;7.57;5.90;;;-0.30;99.90;;;;;;4974887;28;20178;-65
2023/04/06 04:51:36;;;;;;;5.83;4.40;;;-0.40;99.90;;;;;;4974655;28;20545;-64
2023/04/06 04:54:02;;;;;;;6.73;4.70;;;-0.40;99.90;;;;;;4974404;28;20196;-65
2023/04/06 04:56:28;;;;;;;7.43;4.33;;;-0.40;99.90;;;;;;4973700;28;20686;-65
2023/04/06 04:58:54;;;;;;;7.03;5.65;;;-0.40;99.90;;;;;;4974591;28;20247;-64
2023/04/06 05:01:20;;;;;;;7.03;6.13;;;-0.30;99.90;;;;;;4974884;28;20213;-64
2023/04/06 05:03:46;;;;;;;5.83;3.80;;;-0.30;99.90;;;;;;4974377;28;20416;-65
2023/04/06 05:06:12;;;;;;;4.43;3.28;;;-0.20;99.90;;;;;;4974622;28;20186;-64
2023/04/06 05:08:37;;;;;;;6.90;3.80;;;-0.20;99.90;;;;;;4973310;28;20540;-65
2023/04/06 05:11:04;;;;;;;4.70;4.27;;;0.00;99.90;;;;;;4973028;28;20164;-66
2023/04/06 05:13:31;;;;;;;6.07;4.97;;;0.10;99.90;;;;;;4972356;28;20188;-66
2023/04/06 05:15:56;;;;;;;7.03;5.07;;;0.30;99.90;;;;;;4970774;28;20664;-65
2023/04/06 05:18:22;;;;;;;6.13;5.53;;;0.50;99.90;;;;;;4972564;28;20214;-66
2023/04/06 05:20:48;;;;;;;6.90;5.40;;;0.70;99.90;;;;;;4972765;28;20689;-66
2023/04/06 05:23:14;;;;;;;6.43;5.83;;;1.00;99.90;;;;;;4967846;28;20234;-63
2023/04/06 05:25:40;;;;;;;5.65;5.05;;;1.20;99.90;;;;;;4961984;28;20519;-64
2023/04/06 05:28:06;;;;;;;7.93;5.03;;;1.50;99.90;;;;;;4955011;28;20663;-64
2023/04/06 05:30:31;;;;;;;6.40;5.87;;;1.80;99.90;;;;;;4953471;29;20176;-64
2023/04/06 05:32:58;;;;;;;5.03;4.63;;;2.10;99.90;;;;;;4954781;29;20204;-65
2023/04/06 05:35:24;;;;;;;6.75;6.15;;;2.30;99.90;;;;;;4960157;28;20208;-65
2023/04/06 05:37:49;;;;;;;6.03;5.43;;;2.50;99.90;;;;;;4963049;28;20196;-65
2023/04/06 05:40:15;;;;;;;5.90;5.00;;;2.60;99.90;;;;;;4974174;28;20199;-65
2023/04/06 05:42:42;;;;;;;11.23;4.90;;;2.70;99.90;;;;;;4956374;28;20177;-65
2023/04/06 05:45:10;;;;;;;5.90;5.30;;;2.60;99.90;;;;;;4960597;28;20614;-65
2023/04/06 05:47:36;;;;;;;5.63;5.03;;;2.50;99.90;;;;;;4968117;28;20188;-65
2023/04/06 05:50:02;;;;;;;6.10;4.47;;;2.40;99.90;;;;;;4970979;28;20574;-65
2023/04/06 05:52:27;;;;;;;10.65;5.15;;;2.50;99.90;;;;;;4974241;28;20180;-65
2023/04/06 05:54:54;;;;;;;5.43;4.83;;;2.60;99.90;;;;;;4958916;28;20204;-65
2023/04/06 05:57:19;;;;;;;5.18;4.68;;;2.70;99.90;;;;;;4952311;28;20235;-65
2023/04/06 05:59:45;;;;;;;6.43;4.87;;;2.80;99.90;;;;;;4964502;28;20203;-65
2023/04/06 06:02:10;;;;;;;11.90;6.60;;;2.90;99.90;;;;;;4967951;28;20219;-64
2023/04/06 06:04:36;;;;;;;6.77;6.13;;;3.00;99.90;;;;;;4957919;28;20193;-66
2023/04/06 06:07:02;;;;;;;7.07;5.03;;;3.20;99.90;;;;;;4971949;28;20194;-64
2023/04/06 06:09:27;;;;;;;5.17;4.73;;;3.50;99.90;;;;;;4974207;28;20204;-65
2023/04/06 06:11:53;;;;;;;6.10;4.47;;;3.70;99.90;;;;;;4968194;28;20248;-64
2023/04/06 06:14:19;;;;;;;5.73;5.23;;;3.90;99.90;;;;;;4957997;28;20196;-66
2023/04/06 06:16:45;;;;;;;5.25;4.85;;;4.20;99.90;;;;;;4973623;28;20554;-64
2023/04/06 06:19:11;;;;;;;6.07;5.40;;;4.30;99.90;;;;;;4972490;28;20187;-65
2023/04/06 06:21:37;;;;;;;6.60;5.40;;;4.60;99.90;;;;;;4970468;28;20424;-64
2023/04/06 06:24:02;;;;;;;8.37;6.63;;;4.80;99.50;;;;;;4955582;28;20554;-66
2023/04/06 06:26:28;;;;;;;7.00;6.30;;;5.00;99.40;;;;;;4975202;28;20270;-69
2023/04/06 06:28:54;;;;;;;6.50;5.00;;;5.20;98.20;;;;;;4958449;28;20189;-66
2023/04/06 06:31:22;;;;;;;5.80;5.30;;;5.40;98.00;;;;;;4968378;28;20182;-67
2023/04/06 06:33:50;;;;;;;7.10;5.60;;;5.60;97.40;;;;;;4969288;28;20187;-68
2023/04/06 06:36:17;;;;;;;5.90;5.30;;;5.90;96.60;;;;;;4957583;28;20339;-71
2023/04/06 06:38:43;;;;;;;6.78;5.47;;;5.90;95.70;;;;;;4973304;28;20191;-66
2023/04/06 06:41:09;;;;;;;8.33;5.97;;;5.80;96.10;;;;;;4977356;28;20525;-67
2023/04/06 06:43:34;;;;;;;6.60;5.80;;;5.90;95.90;;;;;;4961660;28;20918;-68
2023/04/06 06:46:00;;;;;;;6.63;6.00;;;6.10;95.80;;;;;;4956552;29;20197;-67
2023/04/06 06:48:26;;;;;;;11.27;5.60;;;6.30;95.30;;;;;;4962140;28;20197;-64
2023/04/06 06:50:51;;;;;;;7.00;6.40;;;6.50;95.30;;;;;;4957718;28;20184;-66
2023/04/06 06:53:17;;;;;;;7.57;5.60;;;6.70;94.70;;;;;;4968246;28;20965;-64
2023/04/06 06:55:44;;;;;;;8.70;6.20;;;6.80;94.40;;;;;;4974900;28;20196;-63
2023/04/06 06:58:10;;;;;;;7.10;5.40;;;6.90;93.90;;;;;;4957719;28;20239;-68
2023/04/06 07:00:35;;;;;;;5.40;4.90;;;6.90;94.30;;;;;;4962954;28;20587;-67
2023/04/06 07:03:01;;;;;;;7.73;4.73;;;7.10;94.10;;;;;;4976961;28;20486;-67
2023/04/06 07:05:27;;;;;;;6.27;5.57;;;7.30;93.30;;;;;;4958025;28;20235;-67
2023/04/06 07:07:53;;;;;;;5.67;5.20;;;7.70;93.00;;;;;;4960891;28;20231;-68
2023/04/06 07:10:18;;;;;;;5.70;5.18;;;7.90;92.60;;;;;;4965380;28;20203;-65
2023/04/06 07:12:46;;;;;;;6.13;4.60;;;8.30;92.40;;;;;;4960384;28;20181;-66
2023/04/06 07:15:12;;;;;;;6.20;5.18;;;8.90;91.80;;;;;;4975744;28;20208;-66
2023/04/06 07:17:38;;;;;;;6.40;5.67;;;9.50;90.40;;;;;;4957552;28;20274;-65
2023/04/06 07:20:04;;;;;;;6.53;5.80;;;10.10;88.80;;;;;;4962506;28;20171;-66
2023/04/06 07:22:30;;;;;;;6.40;5.80;;;10.70;86.80;;;;;;4955785;28;20447;-66
2023/04/06 07:24:56;;;;;;;5.47;4.97;;;11.10;82.90;;;;;;4957743;28;20806;-67
2023/04/06 07:27:21;;;;;;;7.80;7.00;;;11.60;82.50;;;;;;4949426;28;20442;-66
2023/04/06 07:29:47;;;;;;;7.73;6.53;;;11.90;81.50;;;;;;4956914;28;20288;-64
2023/04/06 07:32:13;;;;;;;7.23;6.53;;;12.10;79.10;;;;;;4957370;29;20178;-66
2023/04/06 07:34:38;;;;;;;8.30;7.47;;;12.20;79.00;;;;;;4962362;28;20206;-66
2023/04/06 07:37:04;;;;;;;6.93;6.33;;;12.20;77.40;;;;;;4975986;28;20198;-67
2023/04/06 07:39:30;;;;;;;7.87;7.03;;;12.40;76.10;;;;;;4975317;28;20179;-66
2023/04/06 07:41:55;;;;;;;7.30;6.57;;;12.50;75.20;;;;;;4971766;28;20530;-66
2023/04/06 07:44:21;;;;;;;6.80;6.17;;;12.60;75.00;;;;;;4974001;28;20196;-68
2023/04/06 07:46:46;;;;;;;7.03;6.33;;;12.70;74.30;;;;;;4974644;28;20608;-68
2023/04/06 07:49:12;;;;;;;8.93;7.73;;;13.10;73.50;;;;;;4976090;28;20534;-66
2023/04/06 07:51:38;;;;;;;7.17;6.47;;;13.70;72.40;;;;;;4974979;28;20182;-62
2023/04/06 07:54:04;;;;;;;7.10;6.50;;;14.00;71.30;;;;;;4975384;28;20223;-65
2023/04/06 07:56:30;;;;;;;6.37;5.80;;;14.20;70.80;;;;;;4956861;28;20853;-65
2023/04/06 07:58:56;;;;;;;7.97;7.17;;;14.70;70.60;;;;;;4956687;29;20208;-65
2023/04/06 08:01:22;;;;;;;9.93;7.30;;;15.40;67.50;;;;;;4956683;28;20517;-66
2023/04/06 08:03:49;;;;;;;8.60;7.43;;;16.00;66.70;;;;;;4956104;29;20476;-66
2023/04/06 08:06:15;;;;;;;7.60;6.90;;;16.90;63.40;;;;;;4971458;28;20674;-65
2023/04/06 08:08:41;;;;;;;8.77;7.33;;;17.80;62.10;;;;;;4972989;28;20430;-66
2023/04/06 08:11:06;;;;;;;7.83;7.03;;;18.30;59.30;;;;;;4975843;28;20180;-66
2023/04/06 08:13:32;;;;;;;8.00;7.20;;;18.90;59.30;;;;;;4975386;28;20778;-66
2023/04/06 08:15:59;;;;;;;8.60;7.60;;;19.70;57.10;;;;;;4975518;28;20188;-66
2023/04/06 08:18:25;;;;;;;8.53;7.60;;;20.30;55.60;;;;;;4975378;28;20553;-66
2023/04/06 08:20:51;;;;;;;9.03;8.20;;;20.80;55.30;;;;;;4975847;28;20378;-67
2023/04/06 08:23:16;;;;;;;7.50;6.80;;;21.10;53.80;;;;;;4975297;28;20183;-66
2023/04/06 08:25:42;;;;;;;8.40;7.47;;;21.00;54.20;;;;;;4975493;28;20622;-67
2023/04/06 08:28:09;;;;;;;8.60;7.43;;;21.10;53.40;;;;;;4975130;28;20642;-66
2023/04/06 08:30:35;;;;;;;8.30;7.50;;;20.80;52.70;;;;;;4960237;28;20408;-67
2023/04/06 08:33:01;;;;;;;9.00;8.20;;;20.90;53.70;;;;;;4955966;29;20420;-66
2023/04/06 08:35:27;;;;;;;9.53;7.60;;;21.00;52.20;;;;;;4955593;28;20499;-66
2023/04/06 08:37:53;;;;;;;8.53;7.73;;;20.60;53.40;;;;;;4955809;28;20456;-66
2023/04/06 08:40:19;;;;;;;7.93;7.23;;;20.50;52.30;;;;;;4954722;29;20443;-66
2023/04/06 08:42:52;;;;;;;8.17;7.43;;;20.90;52.80;;;;;;4955928;28;20205;-67
2023/04/06 08:45:20;;;;;;;8.20;7.40;;;21.30;51.90;;;;;;4955467;29;20197;-66
2023/04/06 08:47:54;;;;;;;7.40;6.80;;;21.70;50.60;;;;;;4955587;28;20474;-66
2023/04/06 08:50:21;;;;;;;7.50;6.80;;;22.00;50.80;;;;;;4955654;28;20399;-66
2023/04/06 08:52:48;;;;;;;7.63;6.93;;;21.90;48.80;;;;;;4968905;28;20478;-66
2023/04/06 08:55:15;;;;;;;10.17;7.17;;;22.00;49.60;;;;;;4955023;29;20431;-66
2023/04/06 08:57:42;;;;;;;8.63;7.63;;;22.20;48.90;;;;;;4955318;28;20806;-67
2023/04/06 09:00:10;;;;;;;10.60;6.87;;;22.60;48.20;;;;;;4955570;29;20403;-67
2023/04/06 09:02:42;;;;;;;8.10;7.30;;;22.80;48.40;;;;;;4955402;29;20877;-67
2023/04/06 09:05:12;;;;;;;8.20;7.40;;;22.90;47.80;;;;;;4954668;29;20431;-66
2023/04/06 09:07:38;;;;;;;7.87;7.07;;;23.00;47.30;;;;;;4969207;28;20417;-66
2023/04/06 09:10:05;;;;;;;7.90;7.20;;;23.40;46.90;;;;;;4973439;28;20390;-66
2023/04/06 09:12:31;;;;;;;7.77;7.00;;;23.50;45.60;;;;;;4974594;28;20491;-67
2023/04/06 09:14:58;;;;;;;7.87;7.10;;;23.30;45.10;;;;;;4974256;28;20435;-66
2023/04/06 09:17:29;;;;;;;9.50;7.70;;;23.50;45.30;;;;;;4974008;28;20526;-67
2023/04/06 09:19:56;;;;;;;7.47;6.77;;;23.80;45.50;;;;;;4974608;28;20844;-66
2023/04/06 09:22:22;;;;;;;8.30;7.60;;;23.90;44.60;;;;;;4974506;28;20466;-68
2023/04/06 09:24:50;;;;;;;8.70;7.80;;;24.20;44.30;;;;;;4958809;28;20452;-67
2023/04/06 09:27:17;;;;;;;7.27;6.57;;;24.30;44.20;;;;;;4954806;29;20426;-67
2023/04/06 09:29:44;;;;;;;8.30;6.60;;;24.20;43.80;;;;;;4954032;29;20403;-67
2023/04/06 09:32:11;;;;;;;7.13;6.37;;;24.40;44.00;;;;;;4955166;28;20416;-68
2023/04/06 09:34:39;;;;;;;10.13;7.60;;;24.60;43.60;;;;;;4967346;28;20439;-66
2023/04/06 09:37:15;;;;;;;6.70;6.20;;;24.80;43.10;;;;;;4974414;28;20522;-67
2023/04/06 09:39:41;;;;;;;8.03;6.83;;;24.70;42.70;;;;;;4974338;28;20491;-66
2023/04/06 09:42:07;;;;;;;7.90;6.90;;;24.60;42.20;;;;;;4974269;28;20485;-67
2023/04/06 09:44:33;;;;;;;7.03;6.33;;;24.50;42.80;;;;;;4961446;28;20236;-67
2023/04/06 09:46:59;;;;;;;7.07;6.37;;;24.80;42.40;;;;;;4953788;29;20495;-65
2023/04/06 09:49:27;;;;;;;6.47;5.87;;;25.00;41.00;;;;;;4937670;29;20177;-66
2023/04/06 09:52:00;;;;;;;7.07;6.37;;;25.00;40.60;;;;;;4958376;28;20190;-65
2023/04/06 09:54:29;;;;;;;8.20;6.63;;;24.90;40.70;;;;;;4974002;28;20403;-65
2023/04/06 09:57:07;;;;;;;7.00;6.40;;;24.90;40.90;;;;;;4973282;28;20383;-67
2023/04/06 10:00:11;;;;;;;6.97;6.27;;;24.50;40.80;;;;;;4974298;28;20424;-66
2023/04/06 10:02:48;;;;;;;6.47;5.93;;;23.80;41.00;;;;;;4962283;28;20918;-66
2023/04/06 10:05:35;;;;;;;11.63;6.87;;;23.60;40.90;;;;;;4958015;29;20505;-66
2023/04/06 10:08:07;;;;;;;7.30;6.60;;;23.60;40.90;;;;;;4958523;28;20439;-66
2023/04/06 10:10:33;;;;;;;8.03;6.53;;;23.90;40.80;;;;;;4958790;28;20398;-66
2023/04/06 10:12:59;;;;;;;6.97;5.90;;;23.40;40.00;;;;;;4958364;28;20428;-66
2023/04/06 10:15:25;;;;;;;8.40;6.30;;;23.50;40.40;;;;;;4958124;28;20193;-66
2023/04/06 10:17:51;;;;;;;8.37;6.40;;;23.20;40.30;;;;;;4958882;28;20503;-66
2023/04/06 10:20:26;;;;;;;7.07;6.37;;;23.30;41.70;;;;;;4958275;28;20404;-66
2023/04/06 10:22:57;;;;;;;5.30;4.73;;;23.30;39.70;;;;;;4973808;28;20512;-65
2023/04/06 10:25:28;;;;;;;6.50;5.80;;;23.60;39.50;;;;;;4977124;28;20442;-67
2023/04/06 10:28:00;;;;;;;6.17;5.60;;;24.00;38.50;;;;;;4977449;28;20950;-66
2023/04/06 10:30:27;;;;;;;6.90;6.30;;;24.00;38.10;;;;;;4977551;28;20757;-68
2023/04/06 10:32:53;;;;;;;6.50;5.90;;;23.70;39.30;;;;;;4961366;28;20395;-67
2023/04/06 10:35:19;;;;;;;9.03;6.10;;;23.30;41.00;;;;;;4957932;29;20779;-67
2023/04/06 10:37:52;;;;;;;6.40;5.80;;;23.00;39.80;;;;;;4958219;29;20205;-68
2023/04/06 10:40:24;;;;;;;6.33;5.73;;;23.00;39.00;;;;;;4958311;29;20173;-67
2023/04/06 10:42:50;;;;;;;7.47;5.80;;;22.80;39.50;;;;;;4972417;28;20753;-66
2023/04/06 10:45:26;;;;;;;6.67;6.00;;;22.00;41.30;;;;;;4976632;28;20854;-66
2023/04/06 10:47:55;;;;;;;6.93;5.47;;;21.70;42.50;;;;;;4977008;28;20913;-66
2023/04/06 10:50:22;;;;;;;7.00;6.30;;;21.90;43.20;;;;;;4955794;29;21024;-66
2023/04/06 10:53:02;;;;;;;6.60;5.87;;;21.80;42.70;;;;;;4954043;29;20399;-67
2023/04/06 10:55:29;;;;;;;8.30;6.53;;;21.70;42.60;;;;;;4955324;29;20523;-67
2023/04/06 10:57:54;;;;;;;7.43;6.13;;;21.60;43.20;;;;;;4955945;29;20409;-66
2023/04/06 11:00:20;;;;;;;6.50;5.90;;;21.20;41.70;;;;;;4939746;29;20742;-67
2023/04/06 11:02:47;;;;;;;6.90;6.20;;;20.80;42.00;;;;;;4941877;29;20524;-66
2023/04/06 11:05:14;;;;;;;7.63;6.93;;;20.40;41.00;;;;;;4935865;29;20439;-66
2023/04/06 11:07:40;;;;;;;7.70;6.50;;;19.60;42.00;;;;;;4936463;29;20488;-68
2023/04/06 11:10:07;;;;;;;6.73;6.03;;;19.50;41.80;;;;;;4936342;29;20417;-66
2023/04/06 11:12:34;;;;;;;8.80;6.60;;;19.50;42.90;;;;;;4945477;28;20439;-67
2023/04/06 11:15:05;;;;;;;6.27;5.67;;;18.90;44.80;;;;;;4955148;29;20440;-66
2023/04/06 11:17:35;;;;;;;6.57;5.93;;;18.30;44.50;;;;;;4955684;29;20727;-67
2023/04/06 11:20:03;;;;;;;8.93;6.20;;;17.60;46.10;;;;;;4955500;29;20416;-66
2023/04/06 11:22:30;;;;;;;6.90;5.43;;;16.80;44.70;;;;;;4966153;28;20531;-66
2023/04/06 11:25:08;;;;;;;7.63;5.53;;;16.30;46.00;;;;;;4955807;29;20791;-66
2023/04/06 11:27:36;;;;;;;5.97;5.37;;;15.50;46.10;;;;;;4957307;29;20463;-67
2023/04/06 11:30:02;;;;;;;5.70;4.37;;;15.20;46.20;;;;;;4955832;29;20439;-66
2023/04/06 11:32:29;;;;;;;6.23;4.50;;;15.10;46.10;;;;;;4965073;28;20557;-65
2023/04/06 11:34:57;;;;;;;5.30;4.80;;;15.00;47.00;;;;;;4975880;28;20440;-65
2023/04/06 11:37:27;;;;;;;6.20;4.70;;;15.00;46.50;;;;;;4976424;28;20407;-64
2023/04/06 11:39:55;;;;;;;5.40;4.20;;;14.80;45.30;;;;;;4976579;28;20405;-67
2023/04/06 11:42:29;;;;;;;4.60;3.60;;;14.60;46.30;;;;;;4968073;28;20462;-67
2023/04/06 11:45:00;;;;;;;4.67;4.27;;;14.60;46.10;;;;;;4956680;29;20425;-66
2023/04/06 11:47:30;;;;;;;5.30;4.37;;;14.50;44.60;;;;;;4956866;28;20467;-66
2023/04/06 11:49:59;;;;;;;4.07;3.57;;;14.50;45.50;;;;;;4956852;28;20409;-65
2023/04/06 11:52:29;;;;;;;5.67;3.80;;;14.50;46.30;;;;;;4964873;28;20445;-66
2023/04/06 11:54:56;;;;;;;5.23;4.73;;;14.40;46.40;;;;;;4975030;28;20549;-65
2023/04/06 11:57:25;;;;;;;5.10;4.47;;;14.30;45.60;;;;;;4975844;28;20426;-66
2023/04/06 11:59:52;;;;;;;4.80;4.27;;;14.20;46.60;;;;;;4976004;28;20502;-66
2023/04/06 12:02:18;;;;;;;4.10;3.20;;;14.20;44.30;;;;;;4968578;28;20425;-66
2023/04/06 12:04:44;;;;;;;5.07;4.30;;;14.20;44.70;;;;;;4956241;28;20439;-66
2023/04/06 12:07:10;;;;;;;3.43;3.13;;;14.20;45.80;;;;;;4956595;28;20267;-65
2023/04/06 12:09:36;;;;;;;3.30;3.00;;;14.10;45.20;;;;;;4956538;29;20428;-64
2023/04/06 12:12:02;;;;;;;4.60;3.63;;;14.10;44.40;;;;;;4961120;28;20423;-66
2023/04/06 12:14:28;;;;;;;4.00;3.70;;;14.10;45.40;;;;;;4959832;28;20926;-66
2023/04/06 12:16:54;;;;;;;5.30;4.20;;;14.20;45.10;;;;;;4956353;28;20416;-66
2023/04/06 12:19:19;;;;;;;4.43;3.60;;;14.40;43.30;;;;;;4956453;28;20187;-66
2023/04/06 12:21:45;;;;;;;3.90;3.27;;;14.40;43.80;;;;;;4956434;28;20218;-65
2023/04/06 12:24:11;;;;;;;3.47;3.20;;;14.40;43.10;;;;;;4967349;28;20481;-66
2023/04/06 12:26:37;;;;;;;5.20;4.13;;;14.20;44.00;;;;;;4975379;28;20179;-66
2023/04/06 12:29:06;;;;;;;4.50;3.73;;;14.20;44.50;;;;;;4975377;28;20250;-66
2023/04/06 12:31:34;;;;;;;5.80;4.17;;;14.20;44.70;;;;;;4939406;28;20292;-65
2023/04/06 12:34:01;;;;;;;3.63;3.33;;;14.30;44.20;;;;;;4955625;29;20479;-65
2023/04/06 12:36:27;;;;;;;3.60;2.97;;;14.30;43.50;;;;;;4956741;28;20416;-66
2023/04/06 12:38:53;;;;;;;5.97;3.60;;;14.30;43.20;;;;;;4955693;28;20411;-65
2023/04/06 12:41:19;;;;;;;3.67;2.90;;;14.40;44.00;;;;;;4955771;28;20650;-67
2023/04/06 12:43:46;;;;;;;4.10;3.17;;;14.50;44.30;;;;;;4974192;28;20431;-66
2023/04/06 12:46:12;;;;;;;6.30;4.40;;;14.70;44.50;;;;;;4975006;28;20461;-66
2023/04/06 12:48:38;;;;;;;4.27;3.77;;;14.90;43.90;;;;;;4975226;28;20586;-66
2023/04/06 12:51:06;;;;;;;4.37;3.40;;;14.80;43.80;;;;;;4973883;28;20831;-66
2023/04/06 12:53:33;;;;;;;4.10;3.70;;;14.80;42.80;;;;;;4957701;28;20184;-65
2023/04/06 12:55:59;;;;;;;4.07;3.67;;;14.80;43.20;;;;;;4955790;29;20424;-66
2023/04/06 12:58:29;;;;;;;4.13;3.73;;;14.90;43.40;;;;;;4955846;28;20445;-66
2023/04/06 13:00:55;;;;;;;3.97;3.37;;;14.90;44.60;;;;;;4955870;28;20416;-66
2023/04/06 13:03:22;;;;;;;5.27;4.17;;;15.00;44.20;;;;;;4970219;28;20574;-65
2023/04/06 13:05:49;;;;;;;7.07;3.13;;;15.10;43.50;;;;;;4974466;28;20509;-66
2023/04/06 13:08:15;;;;;;;3.70;3.40;;;15.20;42.50;;;;;;4973353;28;20918;-65
2023/04/06 13:10:44;;;;;;;2.77;2.57;;;15.10;42.00;;;;;;4974679;28;20428;-65
2023/04/06 13:13:10;;;;;;;6.20;3.20;;;14.90;42.90;;;;;;4961328;28;20571;-65
2023/04/06 13:15:36;;;;;;;4.53;3.47;;;14.70;42.90;;;;;;4955460;28;20515;-66
2023/04/06 13:18:02;;;;;;;4.90;3.30;;;14.60;43.10;;;;;;4955575;29;20196;-66
2023/04/06 13:20:28;;;;;;;4.07;3.63;;;14.60;43.90;;;;;;4955397;29;20187;-66
2023/04/06 13:22:54;;;;;;;4.27;3.83;;;14.60;43.70;;;;;;4966014;28;20921;-66
2023/04/06 13:25:21;;;;;;;3.53;3.23;;;14.50;43.10;;;;;;4974286;28;20203;-66
2023/04/06 13:27:48;;;;;;;3.73;3.43;;;14.50;44.30;;;;;;4974639;28;20501;-66
2023/04/06 13:30:14;;;;;;;3.77;2.97;;;14.50;43.80;;;;;;4974812;28;20450;-64
2023/04/06 13:32:40;;;;;;;4.20;3.57;;;14.40;44.40;;;;;;4966287;28;20439;-66
2023/04/06 13:35:07;;;;;;;3.43;3.23;;;14.30;43.70;;;;;;4954834;28;21004;-66
2023/04/06 13:37:34;;;;;;;4.10;3.70;;;14.40;43.40;;;;;;4961373;28;20184;-68
2023/04/06 13:40:02;;;;;;;5.00;3.30;;;14.30;43.20;;;;;;4961411;28;20920;-66
2023/04/06 13:42:28;;;;;;;5.30;3.70;;;14.30;43.30;;;;;;4966167;28;20434;-67
2023/04/06 13:44:55;;;;;;;4.77;3.33;;;14.30;43.60;;;;;;4980296;28;20435;-66
2023/04/06 13:47:20;;;;;;;4.50;4.07;;;14.30;44.10;;;;;;4980543;28;20198;-66
2023/04/06 13:49:47;;;;;;;6.50;4.80;;;14.30;44.20;;;;;;4980655;28;20758;-66
2023/04/06 13:52:13;;;;;;;3.93;3.27;;;14.30;43.60;;;;;;4980685;28;20218;-67
2023/04/06 13:54:38;;;;;;;3.97;3.10;;;14.40;43.50;;;;;;4970687;28;21048;-66
2023/04/06 13:57:05;;;;;;;4.93;3.20;;;14.50;44.10;;;;;;4965834;28;20419;-65
2023/04/06 13:59:36;;;;;;;4.03;3.60;;;14.60;44.00;;;;;;4980202;28;20180;-67
2023/04/06 14:02:03;;;;;;;4.00;3.70;;;14.70;43.90;;;;;;4979302;28;20778;-66
2023/04/06 14:04:29;;;;;;;3.77;3.47;;;14.70;43.70;;;;;;4978805;28;20806;-66
2023/04/06 14:06:55;;;;;;;3.80;3.50;;;14.80;43.30;;;;;;4979086;28;20531;-66
2023/04/06 14:09:20;;;;;;;5.63;3.60;;;14.90;43.40;;;;;;4962290;28;20511;-66
2023/04/06 14:11:46;;;;;;;3.80;3.50;;;14.90;43.90;;;;;;4980252;28;20548;-64
2023/04/06 14:14:12;;;;;;;4.67;3.60;;;15.00;44.00;;;;;;4978945;28;20247;-66
2023/04/06 14:16:38;;;;;;;3.60;3.30;;;15.00;43.40;;;;;;4980649;28;20165;-66
2023/04/06 14:19:03;;;;;;;3.93;3.50;;;15.00;42.70;;;;;;4980425;28;20407;-66
2023/04/06 14:21:29;;;;;;;4.00;3.60;;;14.90;43.50;;;;;;4967828;28;20181;-65
2023/04/06 14:23:56;;;;;;;5.10;3.60;;;15.00;43.20;;;;;;4959435;28;20593;-67
2023/04/06 14:26:22;;;;;;;5.50;3.50;;;15.00;43.10;;;;;;4961174;29;20212;-66
2023/04/06 14:28:49;;;;;;;3.23;2.87;;;15.00;42.90;;;;;;4961277;28;20412;-66
2023/04/06 14:31:15;;;;;;;4.00;3.70;;;15.00;43.40;;;;;;4961257;28;20442;-67
2023/04/06 14:33:42;;;;;;;3.07;2.80;;;15.20;43.50;;;;;;4960600;28;20416;-73
2023/04/06 14:36:08;;;;;;;5.30;3.53;;;15.30;43.40;;;;;;4979795;28;20488;-66
2023/04/06 14:38:34;;;;;;;7.47;4.07;;;15.40;43.00;;;;;;4980367;28;20410;-65
2023/04/06 14:41:00;;;;;;;4.77;3.70;;;15.40;42.70;;;;;;4980292;28;20399;-66
2023/04/06 14:43:26;;;;;;;4.07;3.77;;;15.30;42.90;;;;;;4979909;28;20176;-65
2023/04/06 14:45:52;;;;;;;4.97;3.27;;;15.30;43.00;;;;;;4980015;28;20752;-66
2023/04/06 14:48:18;;;;;;;4.20;3.20;;;15.20;43.40;;;;;;4977905;28;20522;-65
2023/04/06 14:50:54;;;;;;;5.20;4.20;;;15.30;43.30;;;;;;4958783;28;20479;-66
2023/04/06 14:53:20;;;;;;;6.10;3.87;;;15.20;42.90;;;;;;4940577;29;20520;-65
2023/04/06 14:55:46;;;;;;;3.70;3.33;;;15.30;43.20;;;;;;4957650;29;20432;-67
2023/04/06 14:58:12;;;;;;;3.60;3.17;;;15.30;43.20;;;;;;4957787;29;20776;-65
2023/04/06 15:00:38;;;;;;;3.97;3.00;;;15.20;43.40;;;;;;4957758;29;20182;-66
2023/04/06 15:03:04;;;;;;;4.07;3.20;;;15.20;43.20;;;;;;4963177;28;20270;-66
2023/04/06 15:05:33;;;;;;;5.53;3.80;;;15.10;43.30;;;;;;4958683;28;20462;-65
2023/04/06 15:07:59;;;;;;;4.10;3.40;;;15.00;43.40;;;;;;4969464;28;20490;-67
2023/04/06 15:10:24;;;;;;;5.27;4.33;;;14.90;43.30;;;;;;4967306;28;20421;-66
2023/04/06 15:12:50;;;;;;;5.50;4.10;;;14.80;44.20;;;;;;4965140;28;20640;-68
2023/04/06 15:15:16;;;;;;;7.53;3.53;;;14.60;44.60;;;;;;4964842;28;20287;-66
2023/04/06 15:17:42;;;;;;;7.27;4.17;;;14.60;45.30;;;;;;4962099;28;20511;-65
2023/04/06 15:20:08;;;;;;;4.10;3.70;;;14.50;44.30;;;;;;4976664;28;20199;-64
2023/04/06 15:22:33;;;;;;;3.63;3.30;;;14.40;44.20;;;;;;4976701;28;20206;-63
2023/04/06 15:24:59;;;;;;;3.90;3.50;;;14.40;45.00;;;;;;4976129;28;20874;-65
2023/04/06 15:27:25;;;;;;;5.17;3.40;;;14.30;44.50;;;;;;4958606;28;20315;-67
2023/04/06 15:29:50;;;;;;;5.43;4.20;;;14.30;44.40;;;;;;4957856;28;20176;-64
2023/04/06 15:32:16;;;;;;;4.43;3.57;;;14.30;44.70;;;;;;4964465;28;20179;-68
2023/04/06 15:34:41;;;;;;;3.90;2.80;;;14.30;45.50;;;;;;4955512;29;20200;-67
2023/04/06 15:37:08;;;;;;;6.50;3.63;;;14.40;45.60;;;;;;4957169;29;20184;-62
2023/04/06 15:39:33;;;;;;;4.87;4.33;;;14.30;45.70;;;;;;4956047;28;20268;-64
2023/04/06 15:42:00;;;;;;;3.73;3.30;;;14.40;45.00;;;;;;4956838;29;20440;-62
2023/04/06 15:44:26;;;;;;;4.47;3.67;;;14.40;44.90;;;;;;4957234;28;20441;-64
2023/04/06 15:46:52;;;;;;;5.40;4.30;;;14.50;45.40;;;;;;4976238;28;20459;-62
2023/04/06 15:49:19;;;;;;;7.13;4.60;;;14.50;45.50;;;;;;4975812;28;20423;-64
2023/04/06 15:51:47;;;;;;;5.07;3.60;;;14.50;45.80;;;;;;4971897;28;20920;-63
2023/04/06 15:54:13;;;;;;;5.70;3.70;;;14.50;46.20;;;;;;4956426;28;20436;-65
2023/04/06 15:56:39;;;;;;;3.53;3.07;;;14.40;46.80;;;;;;4956756;28;20795;-64
2023/04/06 15:59:04;;;;;;;5.87;3.97;;;14.30;46.40;;;;;;4956566;28;20181;-61
2023/04/06 16:01:30;;;;;;;5.80;4.03;;;14.30;45.60;;;;;;4956964;28;20164;-64
2023/04/06 16:03:56;;;;;;;3.70;3.40;;;14.30;45.10;;;;;;4964562;28;20183;-62
2023/04/06 16:06:21;;;;;;;4.90;3.63;;;14.30;44.80;;;;;;4956543;28;20188;-66
2023/04/06 16:08:47;;;;;;;4.60;3.27;;;14.30;44.60;;;;;;4956524;29;20658;-65
2023/04/06 16:11:13;;;;;;;4.17;3.73;;;14.30;44.90;;;;;;4954974;29;20268;-65
2023/04/06 16:13:38;;;;;;;4.07;3.67;;;14.30;45.30;;;;;;4960699;28;20183;-62
2023/04/06 16:16:04;;;;;;;4.50;3.93;;;14.30;46.00;;;;;;4956417;28;20214;-64
2023/04/06 16:18:30;;;;;;;4.97;4.20;;;14.20;46.00;;;;;;4963441;28;20180;-63
2023/04/06 16:20:56;;;;;;;6.60;3.40;;;14.10;46.30;;;;;;4975498;28;20425;-61
2023/04/06 16:23:22;;;;;;;4.80;4.40;;;14.00;46.90;;;;;;4974694;28;20766;-62
2023/04/06 16:25:49;;;;;;;5.37;4.20;;;14.00;46.70;;;;;;4975259;28;20444;-63
2023/04/06 16:28:15;;;;;;;4.33;3.63;;;14.00;47.40;;;;;;4964382;28;20216;-67
2023/04/06 16:30:41;;;;;;;4.10;3.50;;;13.80;47.30;;;;;;4956204;29;20431;-64
2023/04/06 16:33:07;;;;;;;5.40;3.90;;;13.70;47.40;;;;;;4956217;28;20204;-65
2023/04/06 16:35:33;;;;;;;3.77;3.00;;;13.70;46.90;;;;;;4955874;28;20226;-61
2023/04/06 16:38:00;;;;;;;5.77;4.83;;;13.70;46.80;;;;;;4955902;28;20451;-63
2023/04/06 16:40:25;;;;;;;4.70;3.70;;;13.60;47.10;;;;;;4956317;28;20902;-62
2023/04/06 16:42:51;;;;;;;3.40;3.10;;;13.60;46.90;;;;;;4962176;28;20438;-62
2023/04/06 16:45:17;;;;;;;4.60;4.20;;;13.60;48.00;;;;;;4974630;28;20428;-62
2023/04/06 16:47:42;;;;;;;6.30;4.00;;;13.50;48.00;;;;;;4975138;28;20200;-63
2023/04/06 16:50:09;;;;;;;3.67;3.37;;;13.50;47.90;;;;;;4974953;28;20171;-61